Time;durP1;ratioP1;P1;durP2;ratioP2;P2;SDS_P1;SDS_P2;PMS_P1;PMS_P2;Temp;Humidity;BMP_temperature;BMP_pressure;BME280_temperature;BME280_humidity;BME280_pressure;Samples;Min_cycle;Max_cycle;Signal;HPM_P1;HPM_P2
2022/03/12 00:01:11;;;;;;;;;3.25;3.00;;;;;11.08;100.00;100852.25;5078182;28;45390;-81
2022/03/12 00:03:37;;;;;;;;;2.75;2.75;;;;;11.32;100.00;100878.31;5081067;27;45246;-85
2022/03/12 00:06:05;;;;;;;;;3.25;2.50;;;;;11.24;100.00;100874.50;5083616;28;45591;-81
2022/03/12 00:08:44;;;;;;;;;3.25;3.00;;;;;11.12;100.00;100860.22;5084598;27;46461;-83
2022/03/12 00:11:19;;;;;;;;;4.00;3.00;;;;;11.30;100.00;100893.81;5085853;27;45443;-87
2022/03/12 00:13:47;;;;;;;;;5.00;3.00;;;;;11.34;100.00;100905.19;5080054;27;45337;-84
2022/03/12 00:16:15;;;;;;;;;4.00;3.25;;;;;11.27;100.00;100898.84;5077696;27;45720;-81
2022/03/12 00:18:43;;;;;;;;;3.50;1.50;;;;;11.32;100.00;100904.25;5077364;27;45517;-81
2022/03/12 00:21:13;;;;;;;;;2.75;2.75;;;;;11.33;100.00;100908.59;5065990;27;45369;-81
2022/03/12 00:23:44;;;;;;;;;3.00;3.00;;;;;11.34;100.00;100907.78;5056805;28;45324;-82
2022/03/12 00:26:14;;;;;;;;;9.00;8.50;;;;;11.30;100.00;100900.69;5074114;28;45373;-84
2022/03/12 00:28:42;;;;;;;;;3.50;3.50;;;;;11.44;100.00;100920.31;5076854;28;45491;-82
2022/03/12 00:31:07;;;;;;;;;4.25;2.00;;;;;11.50;100.00;100917.09;5076445;28;45967;-81
2022/03/12 00:33:33;;;;;;;;;3.00;3.00;;;;;11.62;100.00;100927.09;5087458;27;47144;-82
2022/03/12 00:36:00;;;;;;;;;2.00;2.00;;;;;11.67;100.00;100922.09;5093524;27;45352;-81
2022/03/12 00:38:28;;;;;;;;;4.00;3.00;;;;;11.65;100.00;100924.66;5090751;27;47337;-83
2022/03/12 00:40:54;;;;;;;;;2.00;2.00;;;;;11.65;100.00;100918.59;5076480;28;45498;-82
2022/03/12 00:43:20;;;;;;;;;3.00;2.00;;;;;11.74;100.00;100935.41;5080565;27;45288;-82
2022/03/12 00:45:47;;;;;;;;;2.00;2.00;;;;;11.52;100.00;100902.50;5083257;27;45588;-82
2022/03/12 00:48:13;;;;;;;;;4.25;2.00;;;;;11.59;100.00;100932.19;5079625;28;45432;-82
2022/03/12 00:50:39;;;;;;;;;2.75;2.00;;;;;11.69;100.00;100946.41;5075276;27;45663;-82
2022/03/12 00:53:04;;;;;;;;;3.00;3.00;;;;;11.69;100.00;100955.09;5074669;27;45490;-82
2022/03/12 00:55:30;;;;;;;;;2.50;2.25;;;;;11.67;100.00;100953.22;5075237;27;45510;-84
2022/03/12 00:57:56;;;;;;;;;4.50;2.00;;;;;11.57;100.00;100942.47;5073616;27;46758;-84
2022/03/12 01:00:25;;;;;;;;;3.50;3.25;;;;;11.70;100.00;100962.06;5075560;27;45535;-81
2022/03/12 01:02:51;;;;;;;;;4.50;3.25;;;;;11.64;100.00;100961.78;5075694;27;45453;-84
2022/03/12 01:05:20;;;;;;;;;2.00;2.00;;;;;11.60;100.00;100946.91;5076391;27;45387;-84
2022/03/12 01:07:46;;;;;;;;;3.25;2.75;;;;;11.54;100.00;100951.81;5074576;27;46450;-84
2022/03/12 01:10:13;;;;;;;;;3.00;3.00;;;;;11.49;100.00;100946.44;5073355;27;45728;-84
2022/03/12 01:12:39;;;;;;;;;3.00;3.00;;;;;11.64;100.00;100974.75;5073789;27;45365;-84
2022/03/12 01:15:06;;;;;;;;;4.25;3.00;;;;;11.64;100.00;100981.66;5074967;28;45408;-84
2022/03/12 01:17:33;;;;;;;;;2.00;2.00;;;;;11.67;100.00;100977.47;5067396;27;46993;-83
2022/03/12 01:20:00;;;;;;;;;2.50;2.50;;;;;11.49;100.00;100945.56;5075313;28;45354;-83
2022/03/12 01:22:29;;;;;;;;;2.00;2.00;;;;;11.66;100.00;100999.03;5081404;28;45393;-83
2022/03/12 01:24:55;;;;;;;;;4.25;4.00;;;;;11.63;100.00;100983.34;5081439;28;45392;-83
2022/03/12 01:27:21;;;;;;;;;2.00;2.00;;;;;11.65;100.00;100986.88;5081544;27;46453;-83
2022/03/12 01:29:46;;;;;;;;;4.50;3.25;;;;;11.57;100.00;100976.19;5077158;27;45489;-83
2022/03/12 01:32:13;;;;;;;;;3.00;3.00;;;;;11.60;100.00;100973.72;5079000;27;45526;-79
2022/03/12 01:34:39;;;;;;;;;2.25;2.00;;;;;11.56;100.00;100974.41;5081050;28;45402;-84
2022/03/12 01:37:04;;;;;;;;;6.00;4.00;;;;;11.64;100.00;100979.06;5074107;27;46897;-84
2022/03/12 01:39:30;;;;;;;;;3.50;3.25;;;;;11.62;100.00;100984.16;5079183;27;45638;-86
2022/03/12 01:41:56;;;;;;;;;3.00;3.00;;;;;11.24;100.00;100915.97;5077638;27;45464;-85
2022/03/12 01:44:22;;;;;;;;;4.50;2.75;;;;;11.34;100.00;100940.63;5078683;28;45250;-85
2022/03/12 01:46:49;;;;;;;;;3.00;1.75;;;;;11.45;100.00;100965.25;5081153;27;46091;-85
2022/03/12 01:49:19;;;;;;;;;7.00;3.75;;;;;11.52;100.00;100984.56;5080021;27;46052;-85
2022/03/12 01:51:47;;;;;;;;;5.00;3.00;;;;;11.25;100.00;100938.50;5079384;27;45263;-85
2022/03/12 01:54:23;;;;;;;;;2.50;2.50;;;;;11.54;100.00;100980.34;5097212;27;45420;-86
2022/03/12 01:56:51;;;;;;;;;3.50;2.50;;;;;11.56;100.00;100989.97;5082158;27;46236;-86
2022/03/12 01:59:17;;;;;;;;;5.00;3.00;;;;;11.28;100.00;100930.88;5083628;28;45344;-85
2022/03/12 02:01:43;;;;;;;;;2.75;2.00;;;;;11.58;100.00;100985.72;5087404;28;44734;-86
2022/03/12 02:04:09;;;;;;;;;3.00;2.00;;;;;11.64;100.00;100992.91;5081593;28;45514;-88
2022/03/12 02:06:42;;;;;;;;;2.00;2.00;;;;;11.37;100.00;100940.72;5079584;27;46719;-85
2022/03/12 02:09:14;;;;;;;;;2.00;2.00;;;;;11.61;100.00;100980.69;5075484;28;46002;-85
2022/03/12 02:11:40;;;;;;;;;3.00;3.00;;;;;11.67;100.00;100987.84;5058522;28;45310;-85
2022/03/12 02:14:17;;;;;;;;;2.25;2.25;;;;;11.68;100.00;100994.81;5058359;28;45381;-85
2022/03/12 02:16:47;;;;;;;;;2.50;2.50;;;;;11.74;100.00;101014.94;5057783;28;47339;-85
2022/03/12 02:19:13;;;;;;;;;3.00;2.00;;;;;11.60;100.00;100985.81;5059443;28;45268;-85
2022/03/12 02:22:04;;;;;;;;;2.00;2.00;;;;;11.66;100.00;101001.63;5064584;28;45417;-86
2022/03/12 02:24:32;;;;;;;;;1.50;1.50;;;;;11.78;100.00;101019.41;5079437;27;45410;-85
2022/03/12 02:27:00;;;;;;;;;4.25;3.50;;;;;11.58;100.00;100984.88;5079702;28;46433;-85
2022/03/12 02:29:26;;;;;;;;;3.75;2.75;;;;;11.57;100.00;100990.88;5080446;28;45336;-85
2022/03/12 02:31:59;;;;;;;;;6.00;2.75;;;;;11.70;100.00;101002.66;5082760;28;45298;-85
2022/03/12 02:34:42;;;;;;;;;3.75;3.75;;;;;11.67;100.00;101010.28;5095959;27;45350;-86
2022/03/12 02:37:10;;;;;;;;;3.00;3.00;;;;;11.56;100.00;100991.69;5083085;27;45482;-85
2022/03/12 02:39:38;;;;;;;;;3.50;3.50;;;;;11.58;100.00;100997.81;5085582;27;45938;-83
2022/03/12 02:42:07;;;;;;;;;4.25;3.50;;;;;11.40;100.00;100977.16;5098307;27;45455;-86
2022/03/12 02:44:34;;;;;;;;;4.00;4.00;;;;;11.58;100.00;101001.28;5080563;27;45500;-86
2022/03/12 02:47:15;;;;;;;;;3.75;3.00;;;;;11.57;100.00;100994.31;5079172;27;45393;-85
2022/03/12 02:49:50;;;;;;;;;2.50;2.50;;;;;11.73;100.00;101020.94;5077638;28;45315;-84
2022/03/12 02:52:17;;;;;;;;;5.50;3.50;;;;;11.66;100.00;101014.59;5094283;27;45330;-85
2022/03/12 02:54:44;;;;;;;;;4.00;3.00;;;;;11.46;100.00;100980.91;5094645;27;45392;-86
2022/03/12 02:57:11;;;;;;;;;3.00;3.00;;;;;11.64;100.00;101023.16;5076879;28;46889;-86
2022/03/12 02:59:38;;;;;;;;;3.75;3.75;;;;;11.49;100.00;100987.06;5076925;27;45453;-86
2022/03/12 03:02:08;;;;;;;;;4.75;3.00;;;;;11.53;100.00;101015.78;5094387;27;45365;-86
2022/03/12 03:04:35;;;;;;;;;3.25;2.00;;;;;11.43;100.00;100998.91;5079685;27;45160;-86
2022/03/12 03:07:05;;;;;;;;;2.00;2.00;;;;;11.41;100.00;101002.28;5081878;28;47656;-86
2022/03/12 03:09:31;;;;;;;;;5.00;2.75;;;;;11.58;100.00;101037.59;5077645;27;45887;-86
2022/03/12 03:12:02;;;;;;;;;4.00;3.00;;;;;11.56;100.00;101022.78;5078170;28;45268;-86
2022/03/12 03:14:28;;;;;;;;;5.25;2.50;;;;;11.46;100.00;101003.34;5080899;27;45392;-86
2022/03/12 03:16:55;;;;;;;;;2.00;2.00;;;;;11.36;100.00;100990.78;5086384;28;45448;-86
2022/03/12 03:19:26;;;;;;;;;5.00;3.00;;;;;11.23;100.00;100969.50;5082011;28;45221;-86
2022/03/12 03:21:56;;;;;;;;;1.50;1.50;;;;;11.33;100.00;100996.75;5081557;27;45369;-86
2022/03/12 03:24:23;;;;;;;;;5.00;2.75;;;;;11.32;100.00;101000.16;5078797;27;45212;-87
2022/03/12 03:26:52;;;;;;;;;4.25;3.00;;;;;11.24;100.00;100988.56;5077642;27;45735;-87
2022/03/12 03:29:19;;;;;;;;;5.75;2.25;;;;;11.41;100.00;101018.69;5094063;27;45770;-86
2022/03/12 03:31:46;;;;;;;;;2.75;2.75;;;;;11.40;100.00;101027.28;5094159;27;45367;-86
2022/03/12 03:34:13;;;;;;;;;3.00;2.00;;;;;11.38;100.00;101034.13;5077196;28;45268;-86
2022/03/12 03:36:39;;;;;;;;;4.00;3.00;;;;;11.23;100.00;101004.91;5077070;28;47421;-87
2022/03/12 03:39:06;;;;;;;;;2.75;2.00;;;;;11.40;100.00;101029.88;5077682;27;45341;-85
2022/03/12 03:41:33;;;;;;;;;2.50;2.50;;;;;11.41;100.00;101030.78;5079502;28;45451;-86
2022/03/12 03:43:59;;;;;;;;;3.25;3.25;;;;;11.42;100.00;101029.97;5083011;27;45405;-87
2022/03/12 03:46:26;;;;;;;;;2.50;2.50;;;;;11.48;100.00;101031.94;5077642;27;47029;-87
2022/03/12 03:48:53;;;;;;;;;3.25;3.25;;;;;11.42;100.00;101019.59;5078061;27;45702;-85
2022/03/12 03:51:21;;;;;;;;;2.00;2.00;;;;;11.46;100.00;101032.75;5080617;27;45422;-85
2022/03/12 03:53:48;;;;;;;;;4.50;3.00;;;;;11.33;100.00;101011.41;5082163;28;45395;-85
2022/03/12 03:56:14;;;;;;;;;3.75;3.75;;;;;11.30;100.00;101005.28;5079591;28;47130;-86
2022/03/12 03:58:40;;;;;;;;;3.25;2.25;;;;;11.35;100.00;101007.16;5079000;27;45448;-85
2022/03/12 04:01:12;;;;;;;;;4.75;3.75;;;;;11.28;100.00;101004.31;5093791;27;45349;-85
2022/03/12 04:03:42;;;;;;;;;3.25;3.25;;;;;11.18;100.00;100983.06;5079534;27;45413;-85
2022/03/12 04:06:09;;;;;;;;;3.25;3.00;;;;;11.39;100.00;101024.63;5076351;28;46900;-85
2022/03/12 04:08:35;;;;;;;;;2.00;2.00;;;;;11.37;100.00;101024.59;5077572;27;45746;-86
2022/03/12 04:11:04;;;;;;;;;5.25;3.75;;;;;11.28;100.00;101019.84;5077541;27;45468;-85
2022/03/12 04:13:31;;;;;;;;;5.75;3.00;;;;;11.13;100.00;101012.28;5078100;27;45239;-86
2022/03/12 04:16:02;;;;;;;;;2.00;2.00;;;;;11.03;100.00;100999.72;5076285;28;46933;-86
2022/03/12 04:18:29;;;;;;;;;3.50;2.00;;;;;11.14;100.00;101032.19;5077163;27;45913;-86
2022/03/12 04:20:56;;;;;;;;;3.00;2.75;;;;;11.10;100.00;101021.63;5093186;27;45334;-84
2022/03/12 04:23:23;;;;;;;;;4.00;2.75;;;;;11.04;100.00;101017.03;5077338;28;45541;-85
2022/03/12 04:25:52;;;;;;;;;4.25;2.25;;;;;11.03;100.00;101017.84;5076414;28;45333;-86
2022/03/12 04:28:23;;;;;;;;;6.25;3.00;;;;;11.07;100.00;101026.66;5078089;28;45791;-85
2022/03/12 04:30:49;;;;;;;;;3.00;2.50;;;;;10.93;100.00;101013.06;5078873;27;45329;-85
2022/03/12 04:33:19;;;;;;;;;1.00;1.00;;;;;10.90;100.00;101003.47;5083177;28;45207;-83
2022/03/12 04:35:46;;;;;;;;;3.00;3.00;;;;;11.10;100.00;101042.34;5078175;27;46672;-84
2022/03/12 04:38:15;;;;;;;;;5.75;3.50;;;;;10.98;100.00;101015.06;5077667;27;45728;-84
2022/03/12 04:40:46;;;;;;;;;2.50;2.25;;;;;11.02;100.00;101041.09;5076051;28;45447;-84
2022/03/12 04:43:12;;;;;;;;;3.00;2.00;;;;;11.07;100.00;101053.44;5093248;27;45274;-83
2022/03/12 04:45:41;;;;;;;;;5.50;3.75;;;;;10.87;100.00;101012.75;5092649;27;46711;-84
2022/03/12 04:48:07;;;;;;;;;5.50;3.00;;;;;11.01;100.00;101037.63;5077744;27;45908;-84
2022/03/12 04:50:33;;;;;;;;;3.50;3.50;;;;;11.18;100.00;101056.53;5079610;27;45404;-84
2022/03/12 04:53:01;;;;;;;;;4.00;4.00;;;;;11.23;100.00;101067.13;5078633;27;45471;-85
2022/03/12 04:55:29;;;;;;;;;3.00;3.00;;;;;11.14;100.00;101049.44;5076727;28;46333;-85
2022/03/12 04:57:56;;;;;;;;;5.00;3.25;;;;;10.95;100.00;101016.63;5076439;28;45405;-85
2022/03/12 05:00:27;;;;;;;;;8.50;5.50;;;;;11.17;100.00;101069.44;5076589;27;45383;-85
2022/03/12 05:03:09;;;;;;;;;3.75;3.75;;;;;10.90;100.00;101028.47;5078683;27;45238;-85
2022/03/12 05:05:39;;;;;;;;;3.75;3.25;;;;;11.04;100.00;101071.44;5079287;28;47970;-86
2022/03/12 05:08:10;;;;;;;;;6.00;4.00;;;;;10.85;100.00;101048.97;5102428;27;45314;-84
2022/03/12 05:10:36;;;;;;;;;6.75;3.25;;;;;10.67;100.00;101026.56;5084369;27;45371;-85
2022/03/12 05:13:03;;;;;;;;;3.75;3.75;;;;;10.61;100.00;101025.38;5081572;27;45598;-84
2022/03/12 05:15:36;;;;;;;;;3.00;3.00;;;;;10.82;100.00;101056.59;5080294;28;46705;-84
2022/03/12 05:18:06;;;;;;;;;4.00;3.00;;;;;10.75;100.00;101055.41;5080024;27;45784;-85
2022/03/12 05:20:35;;;;;;;;;3.25;2.25;;;;;10.90;100.00;101077.66;5078681;28;45492;-85
2022/03/12 05:23:02;;;;;;;;;4.75;4.75;;;;;10.84;100.00;101060.13;5078723;27;45369;-86
2022/03/12 05:25:29;;;;;;;;;3.50;3.00;;;;;10.75;100.00;101045.03;5080108;27;46625;-87
2022/03/12 05:27:55;;;;;;;;;6.00;3.00;;;;;10.95;100.00;101077.06;5080469;28;45251;-86
2022/03/12 05:30:22;;;;;;;;;5.50;4.00;;;;;10.89;100.00;101068.13;5084706;28;45406;-87
2022/03/12 05:32:49;;;;;;;;;2.25;2.25;;;;;10.82;100.00;101057.47;5080131;27;45385;-86
2022/03/12 05:35:17;;;;;;;;;5.00;3.75;;;;;10.93;100.00;101067.47;5078880;28;47569;-87
2022/03/12 05:37:45;;;;;;;;;6.75;4.50;;;;;11.08;100.00;101096.69;5081122;27;45713;-87
2022/03/12 05:40:12;;;;;;;;;5.75;4.25;;;;;10.92;100.00;101066.56;5081328;27;45509;-87
2022/03/12 05:42:38;;;;;;;;;4.00;3.00;;;;;10.89;100.00;101050.00;5080705;27;45555;-86
2022/03/12 05:45:09;;;;;;;;;5.75;4.75;;;;;10.97;100.00;101074.56;5078933;27;45970;-85
2022/03/12 05:47:42;;;;;;;;;4.00;4.00;;;;;10.99;100.00;101073.84;5086193;27;45896;-85
2022/03/12 05:50:10;;;;;;;;;2.00;2.00;;;;;11.06;100.00;101082.78;5100262;27;45754;-85
2022/03/12 05:52:37;;;;;;;;;4.50;4.00;;;;;10.97;100.00;101064.19;5082064;27;45430;-86
2022/03/12 05:55:05;;;;;;;;;6.00;3.00;;;;;11.17;100.00;101092.75;5080154;27;45377;-86
2022/03/12 05:57:32;;;;;;;;;5.75;4.00;;;;;11.09;100.00;101087.22;5095566;27;45799;-86
2022/03/12 06:00:02;;;;;;;;;6.00;4.00;;;;;10.94;100.00;101077.00;5095330;27;45296;-86
2022/03/12 06:02:29;;;;;;;;;4.00;4.00;;;;;11.03;100.00;101099.88;5079090;28;45421;-86
2022/03/12 06:05:00;;;;;;;;;6.00;4.25;;;;;10.88;100.00;101084.47;5081884;28;47063;-84
2022/03/12 06:07:32;;;;;;;;;5.75;4.00;;;;;10.71;100.00;101066.44;5077491;28;46714;-84
2022/03/12 06:09:58;;;;;;;;;1.75;1.75;;;;;10.69;100.00;101073.25;5059345;28;45473;-84
2022/03/12 06:12:26;;;;;;;;;5.25;5.00;;;;;10.83;100.00;101108.47;5074972;28;45713;-84
2022/03/12 06:14:56;;;;;;;;;6.50;4.25;;;;;10.57;100.00;101077.81;5076719;28;47616;-85
2022/03/12 06:17:24;;;;;;;;;5.00;3.75;;;;;10.70;100.00;101103.50;5077596;27;46016;-85
2022/03/12 06:19:51;;;;;;;;;5.00;4.50;;;;;10.74;100.00;101114.91;5077411;27;45311;-85
2022/03/12 06:22:17;;;;;;;;;5.25;4.00;;;;;10.73;100.00;101124.38;5082839;28;46079;-85
2022/03/12 06:24:44;;;;;;;;;5.75;4.00;;;;;10.73;100.00;101126.06;5087320;28;47123;-85
2022/03/12 06:27:10;;;;;;;;;3.75;3.75;;;;;10.73;100.00;101133.84;5095079;27;45808;-85
2022/03/12 06:29:36;;;;;;;;;3.75;3.75;;;;;10.53;100.00;101095.78;5079129;27;45359;-84
2022/03/12 06:32:03;;;;;;;;;5.25;4.00;;;;;10.76;100.00;101131.41;5077204;28;45576;-85
2022/03/12 06:34:29;;;;;;;;;6.50;6.00;;;;;10.67;100.00;101114.59;5073559;28;46736;-85
2022/03/12 06:36:55;;;;;;;;;6.50;6.50;;;;;10.78;100.00;101133.25;5087947;27;45285;-84
2022/03/12 06:39:21;;;;;;;;;5.50;5.50;;;;;10.84;100.00;101141.34;5080980;27;45580;-84
2022/03/12 06:41:47;;;;;;;;;7.75;7.00;;;;;10.76;100.00;101140.06;5080944;28;45468;-85
2022/03/12 06:44:14;;;;;;;;;5.50;5.00;;;;;10.47;100.00;101116.19;5077306;28;46615;-84
2022/03/12 06:46:39;;;;;;;;;5.00;4.25;;;;;10.55;100.00;101126.94;5077250;27;46064;-84
2022/03/12 06:49:05;;;;;;;;;5.75;4.00;;;;;10.47;100.00;101141.22;5076369;28;45557;-84
2022/03/12 06:51:32;;;;;;;;;5.75;3.25;;;;;10.47;100.00;101151.56;5077977;28;45659;-85
2022/03/12 06:53:58;;;;;;;;;4.75;4.00;;;;;10.47;100.00;101164.50;5077290;27;47765;-85
2022/03/12 06:56:24;;;;;;;;;2.00;2.00;;;;;10.44;100.00;101182.47;5076446;27;45539;-85
2022/03/12 06:58:50;;;;;;;;;4.50;4.00;;;;;10.29;100.00;101169.59;5077696;28;45286;-85
2022/03/12 07:01:15;;;;;;;;;5.00;3.00;;;;;10.10;100.00;101159.97;5078177;28;45503;-85
2022/03/12 07:03:41;;;;;;;;;4.00;4.00;;;;;10.16;100.00;101174.13;5078104;28;46387;-85
2022/03/12 07:06:07;;;;;;;;;3.25;3.25;;;;;10.38;100.00;101203.75;5082543;27;45491;-84
2022/03/12 07:08:33;;;;;;;;;5.00;4.00;;;;;10.29;100.00;101180.81;5079366;28;45496;-85
2022/03/12 07:11:01;;;;;;;;;4.25;4.25;;;;;10.47;100.00;101211.09;5079985;27;45602;-85
2022/03/12 07:13:28;;;;;;;;;4.75;4.00;;;;;10.45;100.00;101199.78;5076877;28;47619;-84
2022/03/12 07:15:54;;;;;;;;;6.00;5.00;;;;;10.21;100.00;101171.78;5090579;27;45519;-84
2022/03/12 07:18:20;;;;;;;;;3.75;2.50;;;;;10.33;100.00;101194.81;5058094;28;45228;-84
2022/03/12 07:20:45;;;;;;;;;2.75;2.75;;;;;10.06;100.00;101167.56;5074482;27;45287;-84
2022/03/12 07:23:11;;;;;;;;;5.75;4.25;;;;;10.34;100.00;101210.44;5076856;27;46300;-84
2022/03/12 07:25:37;;;;;;;;;4.75;3.00;;;;;10.28;100.00;101207.50;5082218;27;45466;-80
2022/03/12 07:28:04;;;;;;;;;3.25;3.25;;;;;10.10;100.00;101199.66;5084809;27;45479;-86
2022/03/12 07:30:30;;;;;;;;;4.00;4.00;;;;;10.16;100.00;101219.78;5077532;27;45337;-87
2022/03/12 07:32:56;;;;;;;;;4.00;3.00;;;;;10.20;100.00;101211.41;5077699;27;45634;-86
2022/03/12 07:35:22;;;;;;;;;4.50;4.00;;;;;10.30;100.00;101236.94;5077928;27;45916;-85
2022/03/12 07:37:49;;;;;;;;;3.25;3.25;;;;;10.30;100.00;101205.88;5077160;27;45507;-84
2022/03/12 07:40:16;;;;;;;;;4.75;3.75;;;;;10.44;100.00;101216.13;5079812;27;45406;-83
2022/03/12 07:42:43;;;;;;;;;4.25;4.25;;;;;10.39;100.00;101205.53;5084767;28;45364;-87
2022/03/12 07:45:10;;;;;;;;;4.50;4.50;;;;;10.60;100.00;101233.34;5081397;28;45450;-87
2022/03/12 07:47:36;;;;;;;;;3.75;3.75;;;;;10.59;100.00;101231.53;5081283;28;45305;-86
2022/03/12 07:50:05;;;;;;;;;4.50;4.50;;;;;10.49;100.00;101207.78;5080023;27;45311;-86
2022/03/12 07:52:30;;;;;;;;;4.25;4.25;;;;;10.63;100.00;101220.56;5081229;28;45649;-86
2022/03/12 07:54:56;;;;;;;;;6.00;5.75;;;;;10.40;100.00;101189.19;5077053;28;45420;-86
2022/03/12 07:57:26;;;;;;;;;4.00;3.75;;;;;10.45;100.00;101198.06;5077619;27;45235;-85
2022/03/12 07:59:53;;;;;;;;;5.00;5.00;;;;;10.43;100.00;101191.03;5077126;27;45393;-86
2022/03/12 08:02:19;;;;;;;;;4.50;4.00;;;;;10.73;100.00;101233.16;5074955;27;47646;-85
2022/03/12 08:04:45;;;;;;;;;4.25;3.00;;;;;10.60;100.00;101204.84;5074766;27;45484;-84
2022/03/12 08:07:10;;;;;;;;;7.00;5.25;;;;;10.71;100.00;101224.41;5077644;27;45231;-86
2022/03/12 08:09:36;;;;;;;;;7.00;5.25;;;;;10.89;100.00;101244.28;5076211;27;45607;-86
2022/03/12 08:12:02;;;;;;;;;3.00;3.00;;;;;10.98;100.00;101263.78;5076565;27;45368;-86
2022/03/12 08:14:28;;;;;;;;;5.00;5.00;;;;;10.73;100.00;101208.94;5076355;28;45759;-84
2022/03/12 08:16:54;;;;;;;;;7.00;4.00;;;;;11.07;100.00;101260.72;5080460;27;45666;-82
2022/03/12 08:19:21;;;;;;;;;5.00;3.25;;;;;11.11;100.00;101267.84;5078628;28;45405;-79
2022/03/12 08:21:47;;;;;;;;;5.00;4.00;;;;;11.08;100.00;101270.28;5078835;28;45705;-82
2022/03/12 08:24:15;;;;;;;;;4.00;3.00;;;;;10.96;100.00;101249.84;5091441;27;45838;-85
2022/03/12 08:26:46;;;;;;;;;5.75;4.75;;;;;10.98;100.00;101268.03;5086200;27;45310;-85
2022/03/12 08:29:15;;;;;;;;;2.50;2.50;;;;;11.05;100.00;101283.13;5080549;27;45462;-83
2022/03/12 08:31:41;;;;;;;;;5.75;4.50;;;;;11.03;100.00;101292.50;5089309;27;45446;-83
2022/03/12 08:34:09;;;;;;;;;5.25;4.00;;;;;11.08;100.00;101296.19;5075591;27;45564;-80
2022/03/12 08:36:34;;;;;;;;;4.75;3.00;;;;;11.11;100.00;101296.38;5075948;27;45527;-84
2022/03/12 08:39:00;;;;;;;;;10.00;5.75;;;;;11.02;100.00;101271.69;5081383;27;45316;-84
2022/03/12 08:41:26;;;;;;;;;9.50;6.00;;;;;11.06;100.00;101287.47;5079354;27;45355;-79
2022/03/12 08:43:52;;;;;;;;;4.00;4.00;;;;;10.99;100.00;101295.75;5079467;27;45440;-79
2022/03/12 08:46:18;;;;;;;;;3.00;3.00;;;;;10.91;100.00;101286.69;5079538;27;45311;-82
2022/03/12 08:48:44;;;;;;;;;4.00;4.00;;;;;10.96;100.00;101293.88;5059603;28;45460;-83
2022/03/12 08:51:10;;;;;;;;;3.75;3.00;;;;;10.95;100.00;101286.94;5058389;28;46847;-79
2022/03/12 08:53:36;;;;;;;;;4.25;3.00;;;;;11.02;100.00;101295.91;5106771;27;45497;-77
2022/03/12 08:56:03;;;;;;;;;8.25;3.75;;;;;10.99;100.00;101285.38;5079562;27;45392;-80
2022/03/12 08:58:30;;;;;;;;;4.25;4.00;;;;;10.93;100.00;101280.78;5085983;28;45308;-80
2022/03/12 09:00:58;;;;;;;;;3.00;3.00;;;;;10.97;100.00;101298.25;5083143;27;46497;-78
2022/03/12 09:03:24;;;;;;;;;3.75;3.75;;;;;10.94;100.00;101276.50;5080849;28;45327;-78
2022/03/12 09:05:50;;;;;;;;;6.00;4.25;;;;;11.15;100.00;101289.63;5079014;27;45354;-78
2022/03/12 09:08:17;;;;;;;;;6.00;4.50;;;;;11.23;100.00;101284.84;5079815;27;45328;-78
2022/03/12 09:10:43;;;;;;;;;5.25;4.75;;;;;11.34;100.00;101293.16;5078905;27;45850;-76
2022/03/12 09:13:12;;;;;;;;;5.50;5.50;;;;;11.40;100.00;101294.31;5079513;27;45835;-78
2022/03/12 09:15:39;;;;;;;;;5.25;3.50;;;;;11.40;100.00;101289.13;5079512;27;45665;-76
2022/03/12 09:18:05;;;;;;;;;4.00;4.00;;;;;11.41;100.00;101293.50;5078553;27;45234;-76
2022/03/12 09:20:31;;;;;;;;;4.00;4.00;;;;;11.48;100.00;101283.47;5078769;27;45910;-77
2022/03/12 09:22:57;;;;;;;;;3.25;3.00;;;;;11.50;100.00;101277.53;5077871;27;45328;-76
2022/03/12 09:25:22;;;;;;;;;4.00;3.00;;;;;11.65;100.00;101285.16;5078869;28;45523;-74
2022/03/12 09:27:48;;;;;;;;;4.75;2.75;;;;;11.67;100.00;101280.03;5078675;28;45350;-75
2022/03/12 09:30:15;;;;;;;;;5.00;4.00;;;;;11.71;100.00;101290.66;5078587;28;46030;-74
2022/03/12 09:32:41;;;;;;;;;7.00;4.75;;;;;11.79;100.00;101288.41;5078949;27;45345;-74
2022/03/12 09:35:09;;;;;;;;;4.00;3.00;;;;;11.74;100.00;101266.56;5079020;27;45463;-73
2022/03/12 09:37:35;;;;;;;;;6.25;4.00;;;;;11.87;100.00;101283.56;5080469;28;45185;-74
2022/03/12 09:40:01;;;;;;;;;6.00;4.00;;;;;11.91;100.00;101285.50;5078252;27;45988;-75
2022/03/12 09:42:30;;;;;;;;;4.00;3.25;;;;;11.98;100.00;101295.38;5077934;27;45600;-75
2022/03/12 09:44:59;;;;;;;;;4.00;4.00;;;;;11.98;100.00;101291.91;5078358;27;45346;-74
2022/03/12 09:47:25;;;;;;;;;4.25;4.25;;;;;11.98;100.00;101284.13;5078748;27;45467;-74
2022/03/12 09:49:51;;;;;;;;;3.00;3.00;;;;;11.96;100.00;101281.41;5077455;27;45226;-74
2022/03/12 09:52:17;;;;;;;;;3.00;3.00;;;;;12.03;100.00;101285.22;5077715;27;45345;-75
2022/03/12 09:54:43;;;;;;;;;5.00;5.00;;;;;12.01;100.00;101287.75;5078155;27;45338;-74
2022/03/12 09:57:09;;;;;;;;;3.75;3.00;;;;;11.99;100.00;101283.28;5078964;28;45541;-74
2022/03/12 09:59:35;;;;;;;;;6.25;5.00;;;;;12.02;100.00;101286.03;5078133;27;45476;-73
2022/03/12 10:02:01;;;;;;;;;5.00;4.25;;;;;12.05;100.00;101279.25;5078023;27;45348;-73
2022/03/12 10:04:27;;;;;;;;;6.25;4.50;;;;;12.05;100.00;101270.59;5076915;27;45389;-73
2022/03/12 10:06:53;;;;;;;;;4.00;3.00;;;;;12.06;100.00;101265.47;5078585;27;45483;-73
2022/03/12 10:09:19;;;;;;;;;5.25;4.00;;;;;12.11;100.00;101276.06;5078072;27;45317;-75
2022/03/12 10:11:45;;;;;;;;;5.00;5.00;;;;;12.18;100.00;101274.66;5077746;28;45374;-74
2022/03/12 10:14:11;;;;;;;;;6.25;5.75;;;;;12.21;100.00;101282.56;5058454;27;45319;-75
2022/03/12 10:16:37;;;;;;;;;3.50;3.50;;;;;12.20;100.00;101275.59;5072558;28;45534;-74
2022/03/12 10:19:03;;;;;;;;;3.25;2.00;;;;;12.26;100.00;101278.47;5078322;28;45275;-74
2022/03/12 10:21:30;;;;;;;;;5.00;4.75;;;;;12.29;100.00;101259.56;5076917;28;45344;-74
2022/03/12 10:23:58;;;;;;;;;6.00;4.50;;;;;12.44;100.00;101268.03;5077147;27;45546;-73
2022/03/12 10:26:23;;;;;;;;;4.00;4.00;;;;;12.47;100.00;101275.09;5077943;27;45729;-75
2022/03/12 10:28:49;;;;;;;;;3.25;3.25;;;;;12.53;100.00;101264.97;5077680;27;45385;-74
2022/03/12 10:31:18;;;;;;;;;4.25;4.25;;;;;12.58;100.00;101253.03;5076473;28;45267;-74
2022/03/12 10:33:43;;;;;;;;;3.50;3.25;;;;;12.66;100.00;101249.09;5077384;27;45360;-74
2022/03/12 10:36:15;;;;;;;;;4.00;3.25;;;;;12.66;100.00;101243.91;5078272;27;45606;-74
2022/03/12 10:38:46;;;;;;;;;5.00;4.00;;;;;12.74;100.00;101240.72;5077699;27;46273;-73
2022/03/12 10:41:13;;;;;;;;;5.75;3.50;;;;;12.85;100.00;101250.75;5077934;27;45722;-73
2022/03/12 10:43:43;;;;;;;;;6.50;4.00;;;;;12.82;100.00;101242.84;5093520;27;45333;-74
2022/03/12 10:46:09;;;;;;;;;3.25;3.25;;;;;12.90;100.00;101250.06;5076686;28;45251;-74
2022/03/12 10:48:38;;;;;;;;;4.75;3.25;;;;;12.81;100.00;101255.75;5077208;28;45463;-75
2022/03/12 10:51:04;;;;;;;;;2.50;2.50;;;;;12.79;100.00;101247.03;5077055;28;45254;-75
2022/03/12 10:53:31;;;;;;;;;3.00;3.00;;;;;12.81;100.00;101250.56;5077497;27;45230;-74
2022/03/12 10:55:57;;;;;;;;;6.50;4.50;;;;;12.82;100.00;101245.44;5078167;27;45277;-75
2022/03/12 10:58:24;;;;;;;;;4.75;3.00;;;;;12.78;100.00;101243.53;5076369;27;45448;-73
2022/03/12 11:00:53;;;;;;;;;4.50;2.50;;;;;12.80;100.00;101257.47;5075616;27;45429;-73
2022/03/12 11:03:26;;;;;;;;;4.25;3.25;;;;;12.75;100.00;101232.13;5076856;27;45455;-73
2022/03/12 11:05:55;;;;;;;;;6.25;3.75;;;;;12.82;100.00;101242.84;5076799;27;45337;-74
2022/03/12 11:08:23;;;;;;;;;3.00;3.00;;;;;12.78;100.00;101238.31;5076913;28;45975;-73
2022/03/12 11:10:52;;;;;;;;;3.25;2.25;;;;;12.79;100.00;101241.84;5076883;27;45841;-74
2022/03/12 11:13:47;;;;;;;;;5.00;5.00;;;;;12.84;100.00;101238.59;5076929;27;45328;-75
2022/03/12 11:16:24;;;;;;;;;5.25;5.25;;;;;12.94;100.00;101226.88;5077310;27;45360;-74
2022/03/12 11:18:53;;;;;;;;;5.75;3.75;;;;;13.03;100.00;101220.28;5076559;27;46040;-73